Bogue, Kansas
Current Conditions -  °F | °C
As of 3:53 AM on Thursday 23 Oct 2014 (Local Time) from KHLC Reporting Station
Moderate Fog Moderate Fog  
Wind Chill: 57°   Ceiling: 200
Heat Index: 57°   Visibility: 0.25mi
Dew Point: 57°   Wind: 7mph
Humidity: 100%   Direction: 290°WNW
Pressure: 30.07"   Gusts: NA
Location:  39.36°N, 99.69°W
Report Text: KHLC 230853Z AUTO 29006KT 1/4SM FG VV002 14/14 A3007 RMK AO2 SLP167 T01390139 51003
Loading
Personal Weather Stations






























Interactive Weather Map
Tropical Storm Tracking
New forecast layout! Learn more

10-Day Weather Forecast

Advertisements
Track Severe Weather on mobile